Time;durP1;ratioP1;P1;durP2;ratioP2;P2;SDS_P1;SDS_P2;PMS_P1;PMS_P2;Temp;Humidity;BMP_temperature;BMP_pressure;BME280_temperature;BME280_humidity;BME280_pressure;Samples;Min_cycle;Max_cycle;Signal;HPM_P1;HPM_P2
2024/04/08 00:00:51;;;;;;;4.22;1.60;;;;;;;17.73;40.85;100798.28;4938526;28;20043;-82
2024/04/08 00:03:17;;;;;;;3.38;1.52;;;;;;;17.73;40.68;100814.91;4951085;28;20039;-82
2024/04/08 00:05:44;;;;;;;3.53;1.52;;;;;;;17.72;40.49;100815.13;4936224;28;20089;-83
2024/04/08 00:08:10;;;;;;;3.45;1.60;;;;;;;17.70;40.57;100808.88;4941935;28;20057;-82
2024/04/08 00:10:39;;;;;;;3.95;1.88;;;;;;;17.71;40.76;100811.47;4958532;28;21293;-83
2024/04/08 00:13:05;;;;;;;3.50;1.50;;;;;;;17.65;40.27;100792.81;4943123;28;20105;-81
2024/04/08 00:15:32;;;;;;;3.85;1.65;;;;;;;17.63;40.35;100783.84;4953337;28;20051;-84
2024/04/08 00:17:58;;;;;;;3.10;1.48;;;;;;;17.59;40.38;100771.41;4936995;28;20039;-84
2024/04/08 00:20:25;;;;;;;2.78;1.50;;;;;;;17.58;40.56;100760.50;4936817;28;20131;-84
2024/04/08 00:22:52;;;;;;;3.95;1.58;;;;;;;17.54;40.72;100759.19;4949039;28;20046;-83
2024/04/08 00:25:20;;;;;;;3.22;1.38;;;;;;;17.51;40.75;100759.53;4953753;28;20058;-83
2024/04/08 00:27:49;;;;;;;2.67;1.17;;;;;;;17.50;40.74;100764.19;4945496;28;20110;-82
2024/04/08 00:30:16;;;;;;;3.08;1.45;;;;;;;17.44;41.02;100767.69;4951703;28;20411;-83
2024/04/08 00:32:49;;;;;;;3.50;1.30;;;;;;;17.45;40.75;100771.31;4937610;29;20047;-83
2024/04/08 00:35:16;;;;;;;3.55;1.67;;;;;;;17.43;41.20;100768.75;4950410;28;20055;-83
2024/04/08 00:37:43;;;;;;;3.63;1.50;;;;;;;17.40;41.09;100769.94;4974217;28;20491;-83
2024/04/08 00:40:10;;;;;;;3.75;1.50;;;;;;;17.42;41.22;100777.22;4940171;28;20133;-83
2024/04/08 00:42:37;;;;;;;2.63;1.30;;;;;;;17.39;41.01;100773.78;4955686;28;20089;-83
2024/04/08 00:45:05;;;;;;;2.53;1.30;;;;;;;17.40;41.25;100774.66;4952483;28;20491;-83
2024/04/08 00:47:32;;;;;;;4.63;1.60;;;;;;;17.39;41.36;100781.22;4955224;28;20577;-83
2024/04/08 00:50:01;;;;;;;2.85;1.27;;;;;;;17.37;41.45;100786.94;4948135;28;20043;-83
2024/04/08 00:52:28;;;;;;;3.20;1.52;;;;;;;17.36;41.04;100771.38;4948328;28;20038;-83
2024/04/08 00:54:55;;;;;;;3.55;1.60;;;;;;;17.34;41.41;100765.16;4952312;28;20130;-83
2024/04/08 00:57:22;;;;;;;3.17;1.45;;;;;;;17.34;41.42;100764.28;4955212;28;20105;-83
2024/04/08 00:59:49;;;;;;;2.75;1.38;;;;;;;17.33;41.20;100763.44;4952483;28;20046;-83
2024/04/08 01:02:18;;;;;;;2.83;1.40;;;;;;;17.35;41.71;100775.19;4950573;28;20059;-83
2024/04/08 01:04:45;;;;;;;3.22;1.40;;;;;;;17.32;41.85;100771.91;4946210;28;20482;-83
2024/04/08 01:07:12;;;;;;;2.95;1.40;;;;;;;17.31;41.49;100765.53;4951202;29;20047;-83
2024/04/08 01:09:39;;;;;;;2.38;1.40;;;;;;;17.33;41.64;100759.78;4960225;28;20039;-84
2024/04/08 01:12:06;;;;;;;3.10;1.45;;;;;;;17.34;42.17;100744.94;4936625;28;20035;-83
2024/04/08 01:14:33;;;;;;;2.42;1.25;;;;;;;17.34;41.94;100744.94;4942035;28;20112;-83
2024/04/08 01:17:04;;;;;;;3.55;1.58;;;;;;;17.34;42.02;100731.97;4953578;28;20372;-83
2024/04/08 01:19:31;;;;;;;4.28;1.77;;;;;;;17.35;41.80;100738.34;4955562;28;20510;-84
2024/04/08 01:21:59;;;;;;;4.25;1.60;;;;;;;17.34;41.82;100758.75;4949690;28;20123;-84
2024/04/08 01:24:28;;;;;;;4.68;1.98;;;;;;;17.34;41.87;100778.97;4941345;28;20053;-84
2024/04/08 01:26:55;;;;;;;4.07;1.63;;;;;;;17.34;41.94;100780.88;4948517;28;20129;-83
2024/04/08 01:29:24;;;;;;;4.35;1.70;;;;;;;17.35;42.00;100769.66;4956704;28;20054;-83
2024/04/08 01:31:51;;;;;;;4.50;1.80;;;;;;;17.32;41.79;100745.09;4942238;28;20578;-83
2024/04/08 01:34:33;;;;;;;4.85;2.10;;;;;;;17.34;42.22;100733.84;4959132;28;20042;-84
2024/04/08 01:37:02;;;;;;;3.92;1.98;;;;;;;17.30;41.98;100718.69;4953505;28;20070;-84
2024/04/08 01:39:32;;;;;;;3.95;2.25;;;;;;;17.29;41.67;100719.72;4946175;28;20058;-85
2024/04/08 01:42:00;;;;;;;3.85;1.80;;;;;;;17.24;41.83;100723.00;4945977;28;20063;-85
2024/04/08 01:44:29;;;;;;;5.00;2.47;;;;;;;17.22;41.61;100719.59;4958387;28;20042;-84
2024/04/08 01:47:00;;;;;;;6.10;2.55;;;;;;;17.21;42.09;100725.31;4947757;28;20112;-85
2024/04/08 01:49:27;;;;;;;4.53;2.45;;;;;;;17.15;41.95;100726.91;4940330;28;20122;-85
2024/04/08 01:55:34;;;;;;;4.57;2.33;;;;;;;17.05;42.81;100704.13;4953641;28;20046;-84
2024/04/08 01:58:11;;;;;;;3.63;2.00;;;;;;;17.10;42.59;100720.16;4952454;28;20102;-84
2024/04/08 02:03:50;;;;;;;4.25;2.15;;;;;;;16.99;42.02;100715.88;4910403;29;20083;-84
2024/04/08 02:06:49;;;;;;;5.03;2.60;;;;;;;17.02;42.72;100702.56;4918929;28;20043;-84
2024/04/08 02:13:02;;;;;;;4.18;2.50;;;;;;;16.96;42.91;100694.13;4886598;29;20047;-84
2024/04/08 02:15:28;;;;;;;4.00;2.13;;;;;;;16.90;41.72;100692.06;4921789;28;20070;-83
2024/04/08 02:18:09;;;;;;;3.92;2.38;;;;;;;16.90;42.42;100681.03;4927312;28;20043;-83
2024/04/08 02:20:44;;;;;;;4.72;2.58;;;;;;;16.86;42.20;100677.75;4932944;28;20042;-85
2024/04/08 02:23:36;;;;;;;5.25;2.40;;;;;;;16.85;42.58;100680.69;4949773;28;20046;-84
2024/04/08 02:26:03;;;;;;;5.47;2.60;;;;;;;16.81;42.37;100680.19;4959195;23;20070;-70
2024/04/08 02:28:32;;;;;;;5.05;2.45;;;;;;;16.80;41.90;100672.06;4996899;28;20045;-70
2024/04/08 02:31:00;;;;;;;4.22;2.40;;;;;;;16.78;42.56;100674.16;4995726;28;20057;-70
2024/04/08 02:33:28;;;;;;;5.15;2.20;;;;;;;16.72;42.40;100674.88;4979765;28;20096;-70
2024/04/08 02:35:53;;;;;;;3.65;2.00;;;;;;;16.69;42.33;100677.97;4995815;28;20561;-71
2024/04/08 02:38:21;;;;;;;4.00;1.88;;;;;;;16.65;42.19;100683.03;4995742;28;20050;-71
2024/04/08 02:40:47;;;;;;;4.03;1.88;;;;;;;16.62;42.07;100688.91;4996424;28;20038;-70
2024/04/08 02:43:14;;;;;;;4.68;1.88;;;;;;;16.59;42.28;100681.81;4997635;28;20045;-70
2024/04/08 02:45:41;;;;;;;3.33;1.80;;;;;;;16.60;42.62;100679.91;4977149;28;20034;-70
2024/04/08 02:48:08;;;;;;;4.03;1.92;;;;;;;16.58;42.85;100673.69;4978501;28;20042;-71
2024/04/08 02:50:34;;;;;;;3.97;1.95;;;;;;;16.55;42.54;100672.19;4993364;28;20051;-70
2024/04/08 02:53:01;;;;;;;3.42;1.70;;;;;;;16.54;42.90;100664.06;4993343;28;20050;-70
2024/04/08 02:55:27;;;;;;;3.38;1.90;;;;;;;16.55;42.96;100663.03;4991456;28;20073;-70
2024/04/08 02:57:54;;;;;;;3.70;1.77;;;;;;;16.53;42.88;100659.56;4993211;28;20049;-70
2024/04/08 03:00:20;;;;;;;3.20;1.67;;;;;;;16.53;42.96;100648.50;4992995;28;20065;-70
2024/04/08 03:02:48;;;;;;;3.42;1.80;;;;;;;16.54;43.06;100644.72;4990192;28;20418;-70
2024/04/08 03:05:14;;;;;;;3.72;1.70;;;;;;;16.52;43.05;100631.09;4992191;28;20045;-70
2024/04/08 03:07:41;;;;;;;3.40;1.90;;;;;;;16.52;42.59;100642.13;4989163;28;20049;-70
2024/04/08 03:10:07;;;;;;;3.65;1.90;;;;;;;16.52;42.59;100644.91;4987467;28;20057;-70
2024/04/08 03:12:34;;;;;;;3.45;1.80;;;;;;;16.52;42.60;100652.31;4992513;28;20497;-70
2024/04/08 03:15:00;;;;;;;3.20;1.67;;;;;;;16.52;42.59;100641.25;4991787;28;20520;-70
2024/04/08 03:17:27;;;;;;;4.30;1.83;;;;;;;16.52;42.81;100633.84;4991183;28;20053;-70
2024/04/08 03:19:55;;;;;;;3.90;2.00;;;;;;;16.54;42.92;100631.78;4994690;28;20034;-70
2024/04/08 03:22:22;;;;;;;4.28;2.00;;;;;;;16.53;43.00;100629.19;4974799;28;20050;-70
2024/04/08 03:24:48;;;;;;;2.88;1.60;;;;;;;16.52;43.03;100628.31;4991535;28;20041;-70
2024/04/08 03:27:15;;;;;;;3.10;1.88;;;;;;;16.53;42.98;100630.03;4992870;28;20045;-70
2024/04/08 03:29:41;;;;;;;3.20;1.73;;;;;;;16.51;42.63;100636.78;4975801;28;20054;-71
2024/04/08 03:32:08;;;;;;;3.28;1.90;;;;;;;16.51;42.91;100637.63;4992848;28;20042;-70
2024/04/08 03:34:35;;;;;;;3.55;1.88;;;;;;;16.51;42.52;100642.31;4990949;28;20045;-70
2024/04/08 03:37:04;;;;;;;3.97;1.70;;;;;;;16.51;42.64;100639.53;4992284;28;20190;-70
2024/04/08 03:39:31;;;;;;;3.60;2.05;;;;;;;16.48;43.04;100638.03;4976126;28;20127;-70
2024/04/08 03:41:58;;;;;;;3.40;1.90;;;;;;;16.47;42.47;100641.81;4989661;28;20038;-70
2024/04/08 03:44:25;;;;;;;3.63;1.83;;;;;;;16.45;42.88;100635.59;4991047;28;20046;-71
2024/04/08 03:46:52;;;;;;;3.88;2.00;;;;;;;16.45;42.66;100632.84;4989506;28;20038;-70
2024/04/08 03:49:19;;;;;;;3.13;2.03;;;;;;;16.44;42.95;100628.34;4973582;28;20050;-70
2024/04/08 03:51:45;;;;;;;3.38;2.00;;;;;;;16.43;42.80;100623.84;4991500;28;20042;-70
2024/04/08 03:54:16;;;;;;;3.42;2.00;;;;;;;16.43;43.08;100623.84;4991430;28;20042;-70
2024/04/08 03:56:42;;;;;;;4.35;2.00;;;;;;;16.38;43.01;100604.22;4988519;28;20039;-70
2024/04/08 03:59:09;;;;;;;3.50;2.25;;;;;;;16.37;42.45;100598.84;4980304;28;20512;-70
2024/04/08 04:01:35;;;;;;;4.55;2.45;;;;;;;16.33;42.71;100592.81;4976461;28;20034;-71
2024/04/08 04:04:02;;;;;;;4.03;2.28;;;;;;;16.30;42.48;100595.97;4991093;28;20072;-70
2024/04/08 04:06:28;;;;;;;4.35;2.30;;;;;;;16.27;42.79;100588.00;4994208;28;20445;-70
2024/04/08 04:08:55;;;;;;;4.38;2.22;;;;;;;16.24;43.23;100599.44;4992064;28;20124;-70
2024/04/08 04:11:25;;;;;;;3.28;2.17;;;;;;;16.23;43.10;100601.34;4991703;28;20037;-70
2024/04/08 04:13:52;;;;;;;4.07;2.13;;;;;;;16.19;43.31;100599.94;4974609;28;20069;-70
2024/04/08 04:16:18;;;;;;;3.80;2.20;;;;;;;16.19;43.08;100590.81;4991896;28;20049;-70
2024/04/08 04:18:45;;;;;;;4.38;2.08;;;;;;;16.18;43.21;100589.09;4991580;28;20042;-70
2024/04/08 04:21:11;;;;;;;5.32;2.65;;;;;;;16.18;43.37;100586.31;4992095;28;20041;-70
2024/04/08 04:23:38;;;;;;;3.08;1.90;;;;;;;16.16;43.47;100593.91;4995910;28;20497;-70
2024/04/08 04:26:04;;;;;;;4.05;2.13;;;;;;;16.16;42.99;100605.81;4992150;28;20038;-70
2024/04/08 04:28:32;;;;;;;3.63;2.20;;;;;;;16.18;43.42;100602.88;4992190;28;20054;-70
2024/04/08 04:30:59;;;;;;;4.68;2.20;;;;;;;16.16;43.52;100603.06;4985270;28;20056;-70
2024/04/08 04:33:26;;;;;;;4.15;2.13;;;;;;;16.15;43.43;100593.03;4992297;28;20049;-69
2024/04/08 04:35:53;;;;;;;3.10;2.08;;;;;;;16.16;43.62;100591.16;4990658;28;20038;-70
2024/04/08 04:38:19;;;;;;;4.03;2.40;;;;;;;16.14;43.69;100584.94;4990733;28;20049;-70
2024/04/08 04:40:45;;;;;;;4.10;2.38;;;;;;;16.14;43.20;100576.66;4991362;28;20037;-70
2024/04/08 04:43:12;;;;;;;4.75;2.70;;;;;;;16.12;43.51;100571.31;4977285;28;20069;-70
2024/04/08 04:45:39;;;;;;;4.53;2.60;;;;;;;16.14;43.81;100583.03;4989339;28;20046;-70
2024/04/08 04:48:07;;;;;;;5.28;2.63;;;;;;;16.12;43.39;100578.72;4987456;28;20133;-70
2024/04/08 04:50:34;;;;;;;4.97;2.35;;;;;;;16.11;43.93;100593.56;4990818;28;20437;-70
2024/04/08 04:53:00;;;;;;;4.97;2.72;;;;;;;16.11;43.97;100599.06;4989846;28;20041;-70
2024/04/08 04:55:26;;;;;;;4.22;2.58;;;;;;;16.11;43.47;100588.03;4990638;28;20394;-69
2024/04/08 04:57:52;;;;;;;4.80;2.35;;;;;;;16.11;43.64;100590.78;4990345;28;20386;-71
2024/04/08 05:00:25;;;;;;;4.97;2.65;;;;;;;16.11;43.97;100591.66;4991292;28;20065;-70
2024/04/08 05:02:52;;;;;;;5.18;3.20;;;;;;;16.12;43.91;100593.38;4990208;28;20046;-70
2024/04/08 05:06:42;;;;;;;5.25;2.83;;;;;;;16.12;44.04;100589.75;5449226;25;20326;-70
2024/04/08 05:09:09;;;;;;;5.15;3.03;;;;;;;16.08;44.02;100596.69;5425598;26;20015;-70
2024/04/08 05:11:39;;;;;;;4.20;2.78;;;;;;;16.12;43.98;100598.91;5423349;26;20019;-70
2024/04/08 05:14:07;;;;;;;5.30;3.10;;;;;;;16.12;43.83;100595.28;5384493;26;20004;-70
2024/04/08 05:16:36;;;;;;;4.82;2.75;;;;;;;16.13;44.03;100605.28;5381888;26;20018;-70
2024/04/08 05:19:03;;;;;;;5.30;3.08;;;;;;;16.12;43.96;100611.84;5384513;26;20019;-70
2024/04/08 05:21:34;;;;;;;6.75;3.35;;;;;;;16.13;44.03;100608.06;5389251;26;20019;-70
2024/04/08 05:24:04;;;;;;;5.22;2.80;;;;;;;16.16;44.27;100596.66;5381976;26;20099;-70
2024/04/08 05:26:34;;;;;;;6.60;3.30;;;;;;;16.13;44.09;100597.88;5351816;26;20000;-69
2024/04/08 05:29:01;;;;;;;4.90;3.10;;;;;;;16.13;43.96;100597.88;5390492;26;20012;-70
2024/04/08 05:31:30;;;;;;;5.50;3.03;;;;;;;16.14;44.05;100605.13;5384006;26;20019;-69
2024/04/08 05:33:57;;;;;;;4.55;3.00;;;;;;;16.15;44.12;100595.81;5377872;26;20463;-69
2024/04/08 05:36:27;;;;;;;5.90;3.25;;;;;;;16.16;43.96;100585.63;5359455;26;20004;-70
2024/04/08 05:38:56;;;;;;;5.90;3.30;;;;;;;16.12;43.90;100598.91;5388148;26;20019;-69
2024/04/08 05:41:29;;;;;;;5.53;3.40;;;;;;;16.16;44.19;100600.28;5386171;26;20380;-69
2024/04/08 05:43:56;;;;;;;4.85;3.22;;;;;;;16.13;44.03;100606.16;5384520;26;20036;-69
2024/04/08 05:46:26;;;;;;;5.85;3.80;;;;;;;16.14;44.23;100607.03;5383001;26;20039;-69
2024/04/08 05:48:53;;;;;;;7.05;3.70;;;;;;;16.14;44.17;100605.13;5382611;26;20003;-69
2024/04/08 05:51:25;;;;;;;5.75;3.38;;;;;;;16.15;44.04;100594.94;5353009;26;20004;-70
2024/04/08 05:53:53;;;;;;;5.13;3.45;;;;;;;16.16;44.28;100613.25;5413911;26;20007;-70
2024/04/08 05:56:22;;;;;;;5.28;3.72;;;;;;;16.17;44.42;100604.78;5427009;26;20796;-70
2024/04/08 05:58:52;;;;;;;4.95;3.28;;;;;;;16.20;44.38;100604.44;5424093;25;20022;-70
2024/04/08 06:01:22;;;;;;;5.82;3.50;;;;;;;16.20;44.51;100600.81;5424721;26;20010;-70
2024/04/08 06:03:49;;;;;;;6.10;3.25;;;;;;;16.22;44.63;100602.38;5423742;26;20026;-70
2024/04/08 06:06:19;;;;;;;4.82;3.05;;;;;;;16.25;44.55;100606.66;5413556;26;20014;-70
2024/04/08 06:08:47;;;;;;;6.10;3.42;;;;;;;16.28;44.44;100617.34;5423068;26;20359;-70
2024/04/08 06:11:17;;;;;;;5.60;3.53;;;;;;;16.31;44.96;100616.16;5426751;26;20041;-70
2024/04/08 06:13:44;;;;;;;6.70;3.53;;;;;;;16.35;44.91;100606.47;5420332;26;20411;-70
2024/04/08 06:16:16;;;;;;;4.80;2.97;;;;;;;16.42;44.93;100605.56;5388637;26;20031;-70
2024/04/08 06:18:46;;;;;;;6.07;3.83;;;;;;;16.44;45.10;100597.97;5402803;26;20359;-71
2024/04/08 06:21:15;;;;;;;6.20;3.92;;;;;;;16.51;44.92;100587.06;5401234;26;20346;-70
2024/04/08 06:23:42;;;;;;;6.47;3.22;;;;;;;16.58;44.95;100585.28;5404818;26;20008;-70
2024/04/08 06:26:13;;;;;;;6.38;3.85;;;;;;;16.64;45.04;100588.22;5393415;26;20052;-70
2024/04/08 06:28:40;;;;;;;5.72;3.97;;;;;;;16.72;44.92;100591.97;5403272;26;20431;-70
2024/04/08 06:31:09;;;;;;;5.93;3.78;;;;;;;16.79;44.84;100588.31;5405450;26;20004;-70
2024/04/08 06:33:39;;;;;;;6.35;3.95;;;;;;;16.89;44.84;100574.25;5393742;26;20855;-70
2024/04/08 06:36:09;;;;;;;7.32;4.13;;;;;;;16.93;44.85;100561.78;5394055;26;20878;-71
2024/04/08 06:38:36;;;;;;;5.90;3.85;;;;;;;16.99;45.01;100558.31;5396234;26;20031;-70
2024/04/08 06:41:06;;;;;;;6.57;4.20;;;;;;;17.07;44.77;100555.50;5396052;26;20044;-70
2024/04/08 06:43:33;;;;;;;9.93;3.85;;;;;;;17.14;44.76;100567.53;5396616;26;20022;-70
2024/04/08 06:46:03;;;;;;;6.22;3.47;;;;;;;17.21;44.58;100585.13;5399208;26;20011;-70
2024/04/08 06:48:30;;;;;;;5.53;3.38;;;;;;;17.28;44.69;100590.75;5397689;26;20047;-70
2024/04/08 06:51:02;;;;;;;5.57;3.53;;;;;;;17.39;44.26;100591.22;5398098;26;20011;-71
2024/04/08 06:53:29;;;;;;;6.80;3.72;;;;;;;17.41;44.16;100591.00;5398785;26;20027;-70
2024/04/08 06:55:59;;;;;;;5.45;3.42;;;;;;;17.49;44.28;100585.38;5366048;26;20003;-70
2024/04/08 06:58:26;;;;;;;5.57;3.42;;;;;;;17.57;44.12;100587.22;5397214;26;20465;-70
2024/04/08 07:00:56;;;;;;;4.85;3.10;;;;;;;17.63;44.14;100586.50;5428961;26;20008;-70
2024/04/08 07:03:23;;;;;;;5.07;3.08;;;;;;;17.68;44.00;100584.88;5397739;26;20073;-71
2024/04/08 07:05:53;;;;;;;5.38;3.10;;;;;;;17.75;43.87;100587.78;5364598;26;20004;-71
2024/04/08 07:08:23;;;;;;;4.97;2.97;;;;;;;17.83;43.54;100576.63;5402205;26;20015;-71
2024/04/08 07:10:52;;;;;;;5.45;2.92;;;;;;;17.86;43.57;100565.19;5409828;26;20495;-70
2024/04/08 07:13:20;;;;;;;4.90;2.95;;;;;;;17.91;43.42;100554.41;5398872;26;20072;-70
2024/04/08 07:15:55;;;;;;;4.97;2.63;;;;;;;18.02;43.27;100562.25;5394783;26;20004;-70
2024/04/08 07:18:22;;;;;;;5.00;2.92;;;;;;;18.04;43.57;100564.84;5401437;26;20429;-70
2024/04/08 07:20:52;;;;;;;5.32;3.08;;;;;;;18.11;43.26;100565.78;5395980;26;20622;-71
2024/04/08 07:23:21;;;;;;;5.28;3.35;;;;;;;18.15;43.29;100567.09;5391537;26;20034;-70
2024/04/08 07:25:51;;;;;;;5.65;3.25;;;;;;;18.21;42.95;100555.28;5399848;26;20424;-72
2024/04/08 07:28:19;;;;;;;6.32;3.72;;;;;;;18.26;42.66;100555.56;5404360;26;20367;-69
2024/04/08 07:30:49;;;;;;;5.15;2.97;;;;;;;18.30;42.60;100547.72;5397373;26;20074;-71
2024/04/08 07:33:16;;;;;;;6.00;2.95;;;;;;;18.34;42.49;100540.75;5393442;26;20463;-72
2024/04/08 07:35:46;;;;;;;5.40;3.17;;;;;;;18.39;42.57;100549.34;5403157;26;20021;-70
2024/04/08 07:38:14;;;;;;;4.97;2.75;;;;;;;18.44;42.76;100552.38;5363744;26;20012;-71
2024/04/08 07:40:50;;;;;;;5.05;3.53;;;;;;;18.52;42.59;100557.84;5405457;26;20022;-70
2024/04/08 07:43:17;;;;;;;4.57;2.92;;;;;;;18.54;42.59;100552.13;5425348;26;20039;-69
2024/04/08 07:45:46;;;;;;;6.47;3.15;;;;;;;18.62;42.88;100536.25;5410517;26;20002;-69
2024/04/08 07:48:14;;;;;;;5.13;2.67;;;;;;;18.71;42.68;100537.00;5403825;26;20008;-69
2024/04/08 07:50:44;;;;;;;6.40;3.17;;;;;;;18.78;42.79;100541.56;5410198;26;20452;-69
2024/04/08 07:53:11;;;;;;;5.35;2.80;;;;;;;18.86;42.29;100557.22;5406274;26;20455;-70
2024/04/08 07:55:41;;;;;;;5.43;2.72;;;;;;;18.94;41.93;100559.84;5413739;26;20011;-69
2024/04/08 07:58:14;;;;;;;5.65;2.83;;;;;;;19.03;41.70;100564.22;5412686;26;20007;-70
2024/04/08 08:00:41;;;;;;;4.22;2.50;;;;;;;19.06;41.94;100562.94;5415386;21;20026;-72
2024/04/08 08:03:16;;;;;;;4.97;2.95;;;;;;;19.12;41.87;100556.63;5205834;27;20008;-71
2024/04/08 08:05:43;;;;;;;5.28;2.80;;;;;;;19.21;41.72;100547.16;5206299;27;20463;-71
2024/04/08 08:08:13;;;;;;;5.88;2.80;;;;;;;19.27;41.39;100538.03;5204377;27;20091;-71
2024/04/08 08:10:45;;;;;;;6.10;2.72;;;;;;;19.35;41.62;100545.38;5204101;27;20008;-71
2024/04/08 08:13:17;;;;;;;4.40;2.58;;;;;;;19.44;41.61;100545.03;5203562;27;20371;-71
2024/04/08 08:15:55;;;;;;;3.75;2.40;;;;;;;19.49;41.32;100541.63;5207034;27;20015;-71
2024/04/08 08:18:25;;;;;;;4.50;2.80;;;;;;;19.52;41.54;100547.66;5203192;27;20541;-71
2024/04/08 08:20:56;;;;;;;5.13;2.53;;;;;;;19.60;41.54;100543.88;5203334;27;20016;-71
2024/04/08 08:23:26;;;;;;;5.20;2.70;;;;;;;19.68;40.92;100548.41;5196381;27;20008;-71
2024/04/08 08:25:56;;;;;;;4.70;2.97;;;;;;;19.72;41.16;100547.81;5188388;27;20009;-71
2024/04/08 08:28:29;;;;;;;6.07;2.90;;;;;;;19.81;40.77;100542.97;5190859;27;20472;-72
2024/04/08 08:30:58;;;;;;;5.05;3.03;;;;;;;19.81;41.00;100542.97;5206744;27;20012;-71
2024/04/08 08:33:28;;;;;;;4.60;3.20;;;;;;;19.87;40.78;100553.28;5199420;27;20008;-71
2024/04/08 08:35:55;;;;;;;8.65;3.30;;;;;;;19.91;40.76;100538.81;5194057;27;20461;-71
2024/04/08 08:38:25;;;;;;;5.72;2.75;;;;;;;19.96;40.80;100546.50;5186215;27;20516;-71
2024/04/08 08:41:00;;;;;;;6.35;3.05;;;;;;;20.02;40.38;100545.72;5177450;27;20031;-71
2024/04/08 08:43:33;;;;;;;4.63;2.88;;;;;;;20.05;40.37;100542.50;5204052;27;20008;-71
2024/04/08 08:46:00;;;;;;;5.40;2.65;;;;;;;20.06;40.47;100538.69;5227445;27;20011;-71
2024/04/08 08:48:30;;;;;;;5.35;2.83;;;;;;;20.09;40.47;100546.63;5237253;27;20021;-71
2024/04/08 08:50:58;;;;;;;4.60;2.97;;;;;;;20.12;40.36;100532.28;5230571;27;20022;-71
2024/04/08 08:53:28;;;;;;;4.78;2.88;;;;;;;20.15;40.07;100529.13;5236893;27;20268;-71
2024/04/08 08:55:58;;;;;;;4.78;2.95;;;;;;;20.21;40.16;100542.19;5237349;27;20010;-71
2024/04/08 08:58:28;;;;;;;6.38;2.88;;;;;;;20.21;40.42;100542.19;5242757;27;20041;-71
2024/04/08 09:00:58;;;;;;;5.22;2.65;;;;;;;20.27;39.88;100549.72;5236730;27;20007;-71
2024/04/08 09:03:33;;;;;;;5.45;2.80;;;;;;;20.28;40.08;100543.06;5236094;27;20019;-71
2024/04/08 09:06:00;;;;;;;5.35;2.90;;;;;;;20.32;39.81;100547.16;5236258;27;20019;-71
2024/04/08 09:08:30;;;;;;;5.47;3.15;;;;;;;20.36;39.98;100551.28;5237599;27;20014;-71
2024/04/08 09:10:57;;;;;;;5.65;3.20;;;;;;;20.40;39.92;100552.56;5227285;27;20090;-71
2024/04/08 09:13:29;;;;;;;7.30;3.42;;;;;;;20.47;39.88;100557.28;5262789;27;20393;-71
2024/04/08 09:15:59;;;;;;;6.93;3.28;;;;;;;20.49;39.48;100553.25;5237503;27;20003;-71
2024/04/08 09:18:29;;;;;;;5.35;3.10;;;;;;;20.53;39.36;100556.47;5236461;27;19999;-71
2024/04/08 09:20:58;;;;;;;5.47;3.10;;;;;;;20.57;39.42;100547.50;5237172;27;20039;-71
2024/04/08 09:23:32;;;;;;;6.07;3.17;;;;;;;20.61;39.37;100542.44;5236056;27;20019;-71
2024/04/08 09:25:59;;;;;;;4.20;2.92;;;;;;;20.64;39.31;100540.06;5237172;27;20025;-71
2024/04/08 09:28:29;;;;;;;5.60;3.40;;;;;;;20.68;39.30;100549.72;5237728;27;20086;-71
2024/04/08 09:31:01;;;;;;;5.13;3.40;;;;;;;20.71;38.81;100549.28;5240967;27;20018;-71
2024/04/08 09:33:31;;;;;;;5.63;3.22;;;;;;;20.75;39.15;100541.41;5236023;27;20003;-71
2024/04/08 09:35:58;;;;;;;6.07;3.45;;;;;;;20.78;38.88;100529.84;5225224;27;20086;-71
2024/04/08 09:38:30;;;;;;;7.28;3.80;;;;;;;20.84;38.89;100554.06;5237296;27;20039;-71
2024/04/08 09:40:58;;;;;;;6.30;3.42;;;;;;;20.83;38.77;100546.78;5227074;27;20402;-71
2024/04/08 09:43:29;;;;;;;6.70;3.47;;;;;;;20.88;38.73;100547.00;5236108;27;20355;-71
2024/04/08 09:45:57;;;;;;;6.35;3.75;;;;;;;20.91;38.45;100532.69;5236770;27;20008;-71
2024/04/08 09:48:30;;;;;;;7.03;3.40;;;;;;;20.97;38.25;100531.81;5235383;27;20459;-71
2024/04/08 09:51:00;;;;;;;8.30;4.00;;;;;;;20.98;38.36;100541.91;5223314;27;20022;-71
2024/04/08 09:53:32;;;;;;;5.68;3.58;;;;;;;21.00;38.23;100550.91;5237362;27;20003;-71
2024/04/08 09:56:03;;;;;;;6.22;3.45;;;;;;;21.06;37.93;100540.84;5229946;27;20043;-71
2024/04/08 09:58:42;;;;;;;5.93;3.28;;;;;;;21.09;37.62;100537.66;5240751;27;20561;-71
2024/04/08 10:01:13;;;;;;;7.53;4.45;;;;;;;21.11;37.92;100528.00;5240536;27;20015;-71
2024/04/08 10:03:51;;;;;;;5.50;3.60;;;;;;;21.13;37.80;100520.31;5238799;27;20090;-71
2024/04/08 10:06:19;;;;;;;7.28;3.67;;;;;;;21.13;38.20;100511.09;5240186;27;20015;-71
2024/04/08 10:08:49;;;;;;;6.13;3.85;;;;;;;21.15;37.80;100512.59;5237023;27;20007;-71
2024/04/08 10:11:16;;;;;;;6.38;3.47;;;;;;;21.16;37.91;100502.34;5240297;27;20022;-71
2024/04/08 10:13:49;;;;;;;5.90;3.65;;;;;;;21.22;37.72;100515.38;5237631;27;20017;-71
2024/04/08 10:16:18;;;;;;;5.22;3.30;;;;;;;21.24;37.98;100506.84;5240883;27;20078;-71
2024/04/08 10:18:53;;;;;;;5.43;3.50;;;;;;;21.29;37.02;100509.84;5239619;27;20046;-71
2024/04/08 10:21:21;;;;;;;6.88;3.70;;;;;;;21.29;37.44;100504.28;5240688;27;20044;-71
2024/04/08 10:23:55;;;;;;;5.30;3.40;;;;;;;21.33;37.21;100509.22;5238990;27;20020;-71
2024/04/08 10:26:23;;;;;;;6.15;3.67;;;;;;;21.33;37.18;100506.44;5239760;27;20003;-71
2024/04/08 10:28:53;;;;;;;6.47;3.20;;;;;;;21.32;37.69;100493.59;5239376;27;20031;-71
2024/04/08 10:31:21;;;;;;;5.88;3.45;;;;;;;21.32;37.22;100471.31;5242884;27;20003;-71
2024/04/08 10:33:53;;;;;;;4.80;2.63;;;;;;;21.37;37.41;100473.47;5238401;27;20007;-71
2024/04/08 10:36:20;;;;;;;4.97;3.03;;;;;;;21.35;37.41;100478.41;5235861;27;20081;-71
2024/04/08 10:38:52;;;;;;;4.97;2.90;;;;;;;21.39;37.41;100482.47;5240764;27;20459;-71
2024/04/08 10:41:19;;;;;;;6.20;2.90;;;;;;;21.43;37.20;100472.63;5239991;27;20026;-71
2024/04/08 10:43:49;;;;;;;5.72;3.17;;;;;;;21.46;37.41;100475.81;5238304;27;20007;-71
2024/04/08 10:46:17;;;;;;;4.75;2.80;;;;;;;21.51;37.46;100481.63;5240001;27;20007;-71
2024/04/08 10:48:47;;;;;;;4.90;3.05;;;;;;;21.57;36.80;100485.44;5261633;27;20502;-71
2024/04/08 10:51:17;;;;;;;5.95;3.22;;;;;;;21.65;36.77;100470.44;5237524;27;20024;-71
2024/04/08 10:53:47;;;;;;;6.38;3.08;;;;;;;21.67;36.53;100468.31;5238074;27;20443;-72
2024/04/08 10:56:15;;;;;;;5.95;3.22;;;;;;;21.75;36.20;100470.88;5239937;27;20007;-71
2024/04/08 10:58:45;;;;;;;7.57;3.10;;;;;;;21.74;36.44;100471.94;5240894;27;20363;-71
2024/04/08 11:01:12;;;;;;;6.93;3.55;;;;;;;21.76;35.96;100479.00;5239837;27;20007;-71
2024/04/08 11:03:42;;;;;;;5.68;3.35;;;;;;;21.80;36.09;100471.91;5235989;27;20007;-71
2024/04/08 11:06:09;;;;;;;5.32;3.22;;;;;;;21.81;35.82;100472.78;5237243;27;20025;-71
2024/04/08 11:08:42;;;;;;;4.72;3.10;;;;;;;21.84;35.34;100476.00;5237485;27;20011;-71
2024/04/08 11:11:09;;;;;;;6.10;3.88;;;;;;;21.82;36.12;100466.13;5238964;27;20029;-71
2024/04/08 11:13:39;;;;;;;6.57;4.03;;;;;;;21.82;35.76;100467.00;5238254;27;20077;-71
2024/04/08 11:16:07;;;;;;;5.88;3.85;;;;;;;21.82;35.63;100468.91;5239331;27;20007;-71
2024/04/08 11:18:39;;;;;;;6.80;3.80;;;;;;;21.82;35.49;100463.34;5239080;27;20007;-71
2024/04/08 11:21:06;;;;;;;;;;;;;;;21.50;36.29;100479.03;5239006;27;20019;-71
2024/04/08 11:23:42;;;;;;;5.88;3.70;;;;;;;21.72;35.67;100465.72;5237613;27;19928;-71
2024/04/08 11:26:11;;;;;;;6.97;3.53;;;;;;;21.76;35.44;100472.59;5240183;27;20423;-71
2024/04/08 11:28:41;;;;;;;6.97;4.13;;;;;;;21.71;35.42;100464.00;5239927;27;20150;-71
2024/04/08 11:31:08;;;;;;;7.57;4.00;;;;;;;21.69;35.49;100469.78;5239962;27;20007;-71
2024/04/08 11:33:38;;;;;;;6.45;4.20;;;;;;;21.67;35.78;100480.31;5237452;27;20007;-71
2024/04/08 11:36:08;;;;;;;6.80;4.35;;;;;;;21.68;35.72;100481.16;5237626;27;20019;-71
2024/04/08 11:38:37;;;;;;;7.63;5.35;;;;;;;21.64;36.14;100475.16;5238401;27;20354;-71
2024/04/08 11:41:04;;;;;;;8.35;5.22;;;;;;;21.66;36.20;100474.94;5238614;27;20347;-70
2024/04/08 11:43:39;;;;;;;8.27;5.30;;;;;;;21.68;35.72;100470.88;5238305;27;20018;-71